sensor_id;sensor_type;location;lat;lon;timestamp;P1;durP1;ratioP1;P2;durP2;ratioP2
48215;SDS011;34005;48.844;10.098;2023-08-31T00:01:59;2.88;;;2.20;;
48215;SDS011;34005;48.844;10.098;2023-08-31T00:04:27;1.90;;;1.63;;
48215;SDS011;34005;48.844;10.098;2023-08-31T00:06:55;3.22;;;2.10;;
48215;SDS011;34005;48.844;10.098;2023-08-31T00:09:23;4.32;;;2.22;;
48215;SDS011;34005;48.844;10.098;2023-08-31T00:11:51;3.72;;;1.80;;
48215;SDS011;34005;48.844;10.098;2023-08-31T00:14:19;3.45;;;1.85;;
48215;SDS011;34005;48.844;10.098;2023-08-31T00:16:48;1.90;;;1.65;;
48215;SDS011;34005;48.844;10.098;2023-08-31T00:19:17;1.90;;;1.75;;
48215;SDS011;34005;48.844;10.098;2023-08-31T00:21:45;2.08;;;1.88;;
48215;SDS011;34005;48.844;10.098;2023-08-31T00:24:15;2.45;;;2.25;;
48215;SDS011;34005;48.844;10.098;2023-08-31T00:26:43;3.92;;;1.90;;
48215;SDS011;34005;48.844;10.098;2023-08-31T00:29:11;2.17;;;1.92;;
48215;SDS011;34005;48.844;10.098;2023-08-31T00:31:40;1.80;;;1.65;;
48215;SDS011;34005;48.844;10.098;2023-08-31T00:34:08;2.00;;;1.75;;
48215;SDS011;34005;48.844;10.098;2023-08-31T00:36:42;3.55;;;1.73;;
48215;SDS011;34005;48.844;10.098;2023-08-31T00:39:10;1.92;;;1.83;;
48215;SDS011;34005;48.844;10.098;2023-08-31T00:41:38;1.60;;;1.50;;
48215;SDS011;34005;48.844;10.098;2023-08-31T00:44:06;2.33;;;1.75;;
48215;SDS011;34005;48.844;10.098;2023-08-31T00:46:34;2.45;;;2.03;;
48215;SDS011;34005;48.844;10.098;2023-08-31T00:49:02;2.13;;;1.83;;
48215;SDS011;34005;48.844;10.098;2023-08-31T00:51:31;2.47;;;1.65;;
48215;SDS011;34005;48.844;10.098;2023-08-31T00:54:00;2.65;;;1.70;;
48215;SDS011;34005;48.844;10.098;2023-08-31T00:56:28;2.17;;;1.50;;
48215;SDS011;34005;48.844;10.098;2023-08-31T00:58:56;1.95;;;1.75;;
48215;SDS011;34005;48.844;10.098;2023-08-31T01:01:25;2.97;;;1.75;;
48215;SDS011;34005;48.844;10.098;2023-08-31T01:04:02;1.75;;;1.60;;
48215;SDS011;34005;48.844;10.098;2023-08-31T01:06:41;2.22;;;1.50;;
48215;SDS011;34005;48.844;10.098;2023-08-31T01:09:22;2.63;;;1.77;;
48215;SDS011;34005;48.844;10.098;2023-08-31T01:11:59;5.20;;;1.90;;
48215;SDS011;34005;48.844;10.098;2023-08-31T01:14:32;2.15;;;1.90;;
48215;SDS011;34005;48.844;10.098;2023-08-31T01:17:05;2.60;;;1.70;;
48215;SDS011;34005;48.844;10.098;2023-08-31T01:19:40;2.58;;;2.20;;
48215;SDS011;34005;48.844;10.098;2023-08-31T01:22:14;2.13;;;1.80;;
48215;SDS011;34005;48.844;10.098;2023-08-31T01:24:50;3.40;;;2.17;;
48215;SDS011;34005;48.844;10.098;2023-08-31T01:27:19;1.90;;;1.60;;
48215;SDS011;34005;48.844;10.098;2023-08-31T01:29:47;1.67;;;1.50;;
48215;SDS011;34005;48.844;10.098;2023-08-31T01:32:15;2.53;;;1.83;;
48215;SDS011;34005;48.844;10.098;2023-08-31T01:34:43;4.15;;;2.15;;
48215;SDS011;34005;48.844;10.098;2023-08-31T01:37:13;2.50;;;1.80;;
48215;SDS011;34005;48.844;10.098;2023-08-31T01:39:48;4.65;;;1.92;;
48215;SDS011;34005;48.844;10.098;2023-08-31T01:42:23;3.45;;;1.70;;
48215;SDS011;34005;48.844;10.098;2023-08-31T01:44:55;2.05;;;1.73;;
48215;SDS011;34005;48.844;10.098;2023-08-31T01:47:24;3.97;;;2.08;;
48215;SDS011;34005;48.844;10.098;2023-08-31T01:49:53;2.67;;;2.03;;
48215;SDS011;34005;48.844;10.098;2023-08-31T01:52:22;3.13;;;2.20;;
48215;SDS011;34005;48.844;10.098;2023-08-31T01:54:50;3.70;;;2.00;;
48215;SDS011;34005;48.844;10.098;2023-08-31T01:57:20;2.85;;;2.40;;
48215;SDS011;34005;48.844;10.098;2023-08-31T01:59:48;2.15;;;1.90;;
48215;SDS011;34005;48.844;10.098;2023-08-31T02:02:16;3.65;;;1.92;;
48215;SDS011;34005;48.844;10.098;2023-08-31T02:04:44;3.33;;;2.20;;
48215;SDS011;34005;48.844;10.098;2023-08-31T02:07:12;2.05;;;1.85;;
48215;SDS011;34005;48.844;10.098;2023-08-31T02:09:41;2.22;;;2.05;;
48215;SDS011;34005;48.844;10.098;2023-08-31T02:12:09;3.60;;;1.98;;
48215;SDS011;34005;48.844;10.098;2023-08-31T02:14:39;3.40;;;1.92;;
48215;SDS011;34005;48.844;10.098;2023-08-31T02:17:06;3.30;;;2.38;;
48215;SDS011;34005;48.844;10.098;2023-08-31T02:19:34;2.33;;;2.13;;
48215;SDS011;34005;48.844;10.098;2023-08-31T02:22:02;2.20;;;1.90;;
48215;SDS011;34005;48.844;10.098;2023-08-31T02:24:31;3.78;;;2.53;;
48215;SDS011;34005;48.844;10.098;2023-08-31T02:26:59;2.75;;;2.08;;
48215;SDS011;34005;48.844;10.098;2023-08-31T02:29:28;5.53;;;2.80;;
48215;SDS011;34005;48.844;10.098;2023-08-31T02:31:57;5.13;;;2.22;;
48215;SDS011;34005;48.844;10.098;2023-08-31T02:34:26;3.30;;;2.10;;
48215;SDS011;34005;48.844;10.098;2023-08-31T02:36:54;3.38;;;2.30;;
48215;SDS011;34005;48.844;10.098;2023-08-31T02:39:23;2.63;;;2.40;;
48215;SDS011;34005;48.844;10.098;2023-08-31T02:41:51;5.82;;;2.72;;
48215;SDS011;34005;48.844;10.098;2023-08-31T02:44:19;8.30;;;2.40;;
48215;SDS011;34005;48.844;10.098;2023-08-31T02:46:48;2.05;;;1.83;;
48215;SDS011;34005;48.844;10.098;2023-08-31T02:49:17;4.07;;;2.17;;
48215;SDS011;34005;48.844;10.098;2023-08-31T02:51:45;3.22;;;2.28;;
48215;SDS011;34005;48.844;10.098;2023-08-31T02:54:15;7.82;;;2.53;;
48215;SDS011;34005;48.844;10.098;2023-08-31T02:56:43;3.65;;;2.63;;
48215;SDS011;34005;48.844;10.098;2023-08-31T02:59:11;3.92;;;2.38;;
48215;SDS011;34005;48.844;10.098;2023-08-31T03:01:39;2.75;;;2.50;;
48215;SDS011;34005;48.844;10.098;2023-08-31T03:04:08;3.35;;;2.22;;
48215;SDS011;34005;48.844;10.098;2023-08-31T03:06:38;2.50;;;2.30;;
48215;SDS011;34005;48.844;10.098;2023-08-31T03:09:06;3.35;;;2.45;;
48215;SDS011;34005;48.844;10.098;2023-08-31T03:11:36;8.25;;;3.20;;
48215;SDS011;34005;48.844;10.098;2023-08-31T03:14:04;3.70;;;2.78;;
48215;SDS011;34005;48.844;10.098;2023-08-31T03:16:31;3.22;;;2.50;;
48215;SDS011;34005;48.844;10.098;2023-08-31T03:19:00;2.80;;;2.60;;
48215;SDS011;34005;48.844;10.098;2023-08-31T03:21:28;6.07;;;3.15;;
48215;SDS011;34005;48.844;10.098;2023-08-31T03:23:57;4.38;;;3.33;;
48215;SDS011;34005;48.844;10.098;2023-08-31T03:26:25;3.55;;;3.08;;
48215;SDS011;34005;48.844;10.098;2023-08-31T03:28:53;2.63;;;2.40;;
48215;SDS011;34005;48.844;10.098;2023-08-31T03:31:20;3.83;;;3.00;;
48215;SDS011;34005;48.844;10.098;2023-08-31T03:33:49;5.18;;;3.15;;
48215;SDS011;34005;48.844;10.098;2023-08-31T03:36:18;4.20;;;2.65;;
48215;SDS011;34005;48.844;10.098;2023-08-31T03:38:45;5.90;;;2.63;;
48215;SDS011;34005;48.844;10.098;2023-08-31T03:41:15;3.70;;;2.63;;
48215;SDS011;34005;48.844;10.098;2023-08-31T03:43:43;3.33;;;3.03;;
48215;SDS011;34005;48.844;10.098;2023-08-31T03:46:11;4.07;;;2.60;;
48215;SDS011;34005;48.844;10.098;2023-08-31T03:48:39;4.45;;;2.58;;
48215;SDS011;34005;48.844;10.098;2023-08-31T03:51:07;5.00;;;3.20;;
48215;SDS011;34005;48.844;10.098;2023-08-31T03:53:35;4.07;;;3.15;;
48215;SDS011;34005;48.844;10.098;2023-08-31T03:56:03;5.35;;;3.22;;
48215;SDS011;34005;48.844;10.098;2023-08-31T03:58:32;3.80;;;2.97;;
48215;SDS011;34005;48.844;10.098;2023-08-31T04:01:00;5.50;;;3.65;;
48215;SDS011;34005;48.844;10.098;2023-08-31T04:03:31;4.90;;;3.08;;
48215;SDS011;34005;48.844;10.098;2023-08-31T04:05:59;5.35;;;2.90;;
48215;SDS011;34005;48.844;10.098;2023-08-31T04:08:27;3.28;;;2.53;;
48215;SDS011;34005;48.844;10.098;2023-08-31T04:10:55;3.42;;;2.90;;
48215;SDS011;34005;48.844;10.098;2023-08-31T04:13:23;4.57;;;3.30;;
48215;SDS011;34005;48.844;10.098;2023-08-31T04:15:53;5.32;;;3.08;;
48215;SDS011;34005;48.844;10.098;2023-08-31T04:18:22;5.57;;;2.90;;
48215;SDS011;34005;48.844;10.098;2023-08-31T04:20:50;4.47;;;2.80;;
48215;SDS011;34005;48.844;10.098;2023-08-31T04:23:20;5.32;;;2.83;;
48215;SDS011;34005;48.844;10.098;2023-08-31T04:25:48;4.68;;;3.53;;
48215;SDS011;34005;48.844;10.098;2023-08-31T04:28:18;4.25;;;3.30;;
48215;SDS011;34005;48.844;10.098;2023-08-31T04:30:46;4.07;;;3.03;;
48215;SDS011;34005;48.844;10.098;2023-08-31T04:33:15;3.13;;;2.83;;
48215;SDS011;34005;48.844;10.098;2023-08-31T04:35:44;5.47;;;3.75;;
48215;SDS011;34005;48.844;10.098;2023-08-31T04:38:12;5.85;;;3.00;;
48215;SDS011;34005;48.844;10.098;2023-08-31T04:40:40;5.05;;;3.65;;
48215;SDS011;34005;48.844;10.098;2023-08-31T04:43:10;5.63;;;3.55;;
48215;SDS011;34005;48.844;10.098;2023-08-31T04:45:38;4.30;;;2.80;;
48215;SDS011;34005;48.844;10.098;2023-08-31T04:48:06;7.05;;;3.15;;
48215;SDS011;34005;48.844;10.098;2023-08-31T04:50:36;5.22;;;3.58;;
48215;SDS011;34005;48.844;10.098;2023-08-31T04:53:05;4.30;;;3.30;;
48215;SDS011;34005;48.844;10.098;2023-08-31T04:55:49;4.60;;;3.30;;
48215;SDS011;34005;48.844;10.098;2023-08-31T04:58:27;4.38;;;3.10;;
48215;SDS011;34005;48.844;10.098;2023-08-31T05:00:56;5.35;;;3.70;;
48215;SDS011;34005;48.844;10.098;2023-08-31T05:03:24;5.60;;;4.28;;
48215;SDS011;34005;48.844;10.098;2023-08-31T05:05:55;5.88;;;3.05;;
48215;SDS011;34005;48.844;10.098;2023-08-31T05:08:24;4.15;;;2.60;;
48215;SDS011;34005;48.844;10.098;2023-08-31T05:10:52;3.40;;;3.05;;
48215;SDS011;34005;48.844;10.098;2023-08-31T05:13:22;5.50;;;3.67;;
48215;SDS011;34005;48.844;10.098;2023-08-31T05:15:51;6.18;;;3.47;;
48215;SDS011;34005;48.844;10.098;2023-08-31T05:18:20;3.10;;;2.80;;
48215;SDS011;34005;48.844;10.098;2023-08-31T05:20:49;3.53;;;2.88;;
48215;SDS011;34005;48.844;10.098;2023-08-31T05:23:19;3.05;;;2.60;;
48215;SDS011;34005;48.844;10.098;2023-08-31T05:25:47;3.72;;;2.63;;
48215;SDS011;34005;48.844;10.098;2023-08-31T05:28:14;4.15;;;2.83;;
48215;SDS011;34005;48.844;10.098;2023-08-31T05:30:48;5.15;;;3.28;;
48215;SDS011;34005;48.844;10.098;2023-08-31T05:33:17;3.92;;;3.05;;
48215;SDS011;34005;48.844;10.098;2023-08-31T05:35:44;3.42;;;3.08;;
48215;SDS011;34005;48.844;10.098;2023-08-31T05:38:12;3.78;;;2.90;;
48215;SDS011;34005;48.844;10.098;2023-08-31T05:40:45;4.50;;;3.03;;
48215;SDS011;34005;48.844;10.098;2023-08-31T05:43:12;3.20;;;2.53;;
48215;SDS011;34005;48.844;10.098;2023-08-31T05:45:40;6.88;;;2.92;;
48215;SDS011;34005;48.844;10.098;2023-08-31T05:48:08;7.55;;;3.63;;
48215;SDS011;34005;48.844;10.098;2023-08-31T05:50:36;7.57;;;3.67;;
48215;SDS011;34005;48.844;10.098;2023-08-31T05:53:04;6.45;;;3.08;;
48215;SDS011;34005;48.844;10.098;2023-08-31T05:55:33;5.40;;;3.05;;
48215;SDS011;34005;48.844;10.098;2023-08-31T05:58:03;5.55;;;2.78;;
48215;SDS011;34005;48.844;10.098;2023-08-31T06:00:31;3.97;;;2.72;;
48215;SDS011;34005;48.844;10.098;2023-08-31T06:02:58;5.07;;;3.47;;
48215;SDS011;34005;48.844;10.098;2023-08-31T06:05:26;3.25;;;2.88;;
48215;SDS011;34005;48.844;10.098;2023-08-31T06:07:55;3.65;;;2.92;;
48215;SDS011;34005;48.844;10.098;2023-08-31T06:10:23;5.00;;;2.75;;
48215;SDS011;34005;48.844;10.098;2023-08-31T06:12:51;5.35;;;3.00;;
48215;SDS011;34005;48.844;10.098;2023-08-31T06:15:20;4.53;;;2.70;;
48215;SDS011;34005;48.844;10.098;2023-08-31T06:17:47;3.20;;;2.33;;
48215;SDS011;34005;48.844;10.098;2023-08-31T06:20:15;4.38;;;2.70;;
48215;SDS011;34005;48.844;10.098;2023-08-31T06:22:43;4.80;;;2.38;;
48215;SDS011;34005;48.844;10.098;2023-08-31T06:25:11;3.83;;;2.40;;
48215;SDS011;34005;48.844;10.098;2023-08-31T06:27:41;2.75;;;2.15;;
48215;SDS011;34005;48.844;10.098;2023-08-31T06:30:10;3.00;;;1.85;;
48215;SDS011;34005;48.844;10.098;2023-08-31T06:32:43;3.35;;;2.38;;
48215;SDS011;34005;48.844;10.098;2023-08-31T06:35:12;3.05;;;2.38;;
48215;SDS011;34005;48.844;10.098;2023-08-31T06:37:42;5.25;;;2.50;;
48215;SDS011;34005;48.844;10.098;2023-08-31T06:40:10;5.60;;;2.47;;
48215;SDS011;34005;48.844;10.098;2023-08-31T06:42:38;5.65;;;2.58;;
48215;SDS011;34005;48.844;10.098;2023-08-31T06:45:06;3.08;;;2.33;;
48215;SDS011;34005;48.844;10.098;2023-08-31T06:47:35;3.13;;;2.30;;
48215;SDS011;34005;48.844;10.098;2023-08-31T06:50:04;3.75;;;2.05;;
48215;SDS011;34005;48.844;10.098;2023-08-31T06:52:32;3.72;;;2.30;;
48215;SDS011;34005;48.844;10.098;2023-08-31T06:55:02;4.38;;;2.65;;
48215;SDS011;34005;48.844;10.098;2023-08-31T06:57:32;3.17;;;2.33;;
48215;SDS011;34005;48.844;10.098;2023-08-31T07:00:00;5.43;;;2.25;;
48215;SDS011;34005;48.844;10.098;2023-08-31T07:02:29;3.28;;;2.10;;
48215;SDS011;34005;48.844;10.098;2023-08-31T07:04:57;2.97;;;2.30;;
48215;SDS011;34005;48.844;10.098;2023-08-31T07:07:26;4.32;;;2.03;;
48215;SDS011;34005;48.844;10.098;2023-08-31T07:09:54;3.58;;;2.00;;
48215;SDS011;34005;48.844;10.098;2023-08-31T07:12:21;2.83;;;2.20;;
48215;SDS011;34005;48.844;10.098;2023-08-31T07:14:49;2.72;;;2.00;;
48215;SDS011;34005;48.844;10.098;2023-08-31T07:17:17;2.53;;;1.92;;
48215;SDS011;34005;48.844;10.098;2023-08-31T07:19:46;2.03;;;1.80;;
48215;SDS011;34005;48.844;10.098;2023-08-31T07:22:14;3.08;;;2.38;;
48215;SDS011;34005;48.844;10.098;2023-08-31T07:24:43;3.97;;;2.17;;
48215;SDS011;34005;48.844;10.098;2023-08-31T07:27:11;4.47;;;1.80;;
48215;SDS011;34005;48.844;10.098;2023-08-31T07:29:38;5.00;;;2.08;;
48215;SDS011;34005;48.844;10.098;2023-08-31T07:32:06;5.32;;;1.85;;
48215;SDS011;34005;48.844;10.098;2023-08-31T07:34:34;3.75;;;2.03;;
48215;SDS011;34005;48.844;10.098;2023-08-31T07:37:03;4.78;;;2.55;;
48215;SDS011;34005;48.844;10.098;2023-08-31T07:39:31;4.80;;;2.25;;
48215;SDS011;34005;48.844;10.098;2023-08-31T07:42:00;4.25;;;1.85;;
48215;SDS011;34005;48.844;10.098;2023-08-31T07:44:28;4.72;;;1.95;;
48215;SDS011;34005;48.844;10.098;2023-08-31T07:46:56;3.00;;;1.98;;
48215;SDS011;34005;48.844;10.098;2023-08-31T07:49:24;4.50;;;2.35;;
48215;SDS011;34005;48.844;10.098;2023-08-31T07:51:51;2.35;;;1.55;;
48215;SDS011;34005;48.844;10.098;2023-08-31T07:54:19;3.10;;;1.70;;
48215;SDS011;34005;48.844;10.098;2023-08-31T07:56:47;3.47;;;2.03;;
48215;SDS011;34005;48.844;10.098;2023-08-31T07:59:17;4.43;;;1.92;;
48215;SDS011;34005;48.844;10.098;2023-08-31T08:01:45;3.90;;;1.95;;
48215;SDS011;34005;48.844;10.098;2023-08-31T08:04:13;4.68;;;2.40;;
48215;SDS011;34005;48.844;10.098;2023-08-31T08:06:41;6.65;;;1.95;;
48215;SDS011;34005;48.844;10.098;2023-08-31T08:09:09;4.68;;;1.77;;
48215;SDS011;34005;48.844;10.098;2023-08-31T08:11:36;4.18;;;1.80;;
48215;SDS011;34005;48.844;10.098;2023-08-31T08:14:04;4.85;;;1.92;;
48215;SDS011;34005;48.844;10.098;2023-08-31T08:16:33;3.83;;;2.33;;
48215;SDS011;34005;48.844;10.098;2023-08-31T08:19:01;3.88;;;1.85;;
48215;SDS011;34005;48.844;10.098;2023-08-31T08:21:29;4.30;;;1.50;;
48215;SDS011;34005;48.844;10.098;2023-08-31T08:23:57;5.88;;;1.60;;
48215;SDS011;34005;48.844;10.098;2023-08-31T08:26:24;4.93;;;2.05;;
48215;SDS011;34005;48.844;10.098;2023-08-31T08:28:52;4.93;;;1.80;;
48215;SDS011;34005;48.844;10.098;2023-08-31T08:31:19;4.63;;;1.60;;
48215;SDS011;34005;48.844;10.098;2023-08-31T08:33:50;3.33;;;1.38;;
48215;SDS011;34005;48.844;10.098;2023-08-31T08:36:18;3.15;;;1.50;;
48215;SDS011;34005;48.844;10.098;2023-08-31T08:38:45;2.38;;;1.50;;
48215;SDS011;34005;48.844;10.098;2023-08-31T08:41:13;6.82;;;1.85;;
48215;SDS011;34005;48.844;10.098;2023-08-31T08:43:43;6.40;;;1.90;;
48215;SDS011;34005;48.844;10.098;2023-08-31T08:46:14;3.60;;;1.38;;
48215;SDS011;34005;48.844;10.098;2023-08-31T08:48:42;3.47;;;1.85;;
48215;SDS011;34005;48.844;10.098;2023-08-31T08:51:12;7.22;;;1.90;;
48215;SDS011;34005;48.844;10.098;2023-08-31T08:53:41;5.85;;;1.67;;
48215;SDS011;34005;48.844;10.098;2023-08-31T08:56:10;6.63;;;2.50;;
48215;SDS011;34005;48.844;10.098;2023-08-31T08:58:38;4.72;;;1.63;;
48215;SDS011;34005;48.844;10.098;2023-08-31T09:01:07;5.80;;;1.90;;
48215;SDS011;34005;48.844;10.098;2023-08-31T09:03:35;3.58;;;1.73;;
48215;SDS011;34005;48.844;10.098;2023-08-31T09:06:03;4.03;;;1.63;;
48215;SDS011;34005;48.844;10.098;2023-08-31T09:08:35;4.05;;;1.70;;
48215;SDS011;34005;48.844;10.098;2023-08-31T09:11:03;3.53;;;1.60;;
48215;SDS011;34005;48.844;10.098;2023-08-31T09:13:32;4.40;;;1.73;;
48215;SDS011;34005;48.844;10.098;2023-08-31T09:16:00;3.10;;;1.55;;
48215;SDS011;34005;48.844;10.098;2023-08-31T09:18:28;2.30;;;1.45;;
48215;SDS011;34005;48.844;10.098;2023-08-31T09:20:57;7.32;;;2.08;;
48215;SDS011;34005;48.844;10.098;2023-08-31T09:23:26;3.67;;;2.03;;
48215;SDS011;34005;48.844;10.098;2023-08-31T09:25:56;3.05;;;1.60;;
48215;SDS011;34005;48.844;10.098;2023-08-31T09:28:24;4.78;;;1.38;;
48215;SDS011;34005;48.844;10.098;2023-08-31T09:31:04;3.85;;;2.20;;
48215;SDS011;34005;48.844;10.098;2023-08-31T09:33:33;3.20;;;2.40;;
48215;SDS011;34005;48.844;10.098;2023-08-31T09:36:02;4.93;;;2.53;;
48215;SDS011;34005;48.844;10.098;2023-08-31T09:38:30;4.18;;;1.73;;
48215;SDS011;34005;48.844;10.098;2023-08-31T09:41:04;3.97;;;1.83;;
48215;SDS011;34005;48.844;10.098;2023-08-31T09:43:33;6.45;;;2.10;;
48215;SDS011;34005;48.844;10.098;2023-08-31T09:46:01;2.90;;;1.90;;
48215;SDS011;34005;48.844;10.098;2023-08-31T09:48:31;4.43;;;2.28;;
48215;SDS011;34005;48.844;10.098;2023-08-31T09:50:59;6.05;;;2.13;;
48215;SDS011;34005;48.844;10.098;2023-08-31T09:53:30;5.07;;;1.98;;
48215;SDS011;34005;48.844;10.098;2023-08-31T09:55:58;4.88;;;2.08;;
48215;SDS011;34005;48.844;10.098;2023-08-31T09:58:28;3.00;;;1.90;;
48215;SDS011;34005;48.844;10.098;2023-08-31T10:00:57;2.60;;;1.73;;
48215;SDS011;34005;48.844;10.098;2023-08-31T10:03:26;4.13;;;1.80;;
48215;SDS011;34005;48.844;10.098;2023-08-31T10:05:54;4.78;;;1.88;;
48215;SDS011;34005;48.844;10.098;2023-08-31T10:08:23;3.22;;;1.73;;
48215;SDS011;34005;48.844;10.098;2023-08-31T10:10:52;4.95;;;1.73;;
48215;SDS011;34005;48.844;10.098;2023-08-31T10:13:20;6.85;;;2.45;;
48215;SDS011;34005;48.844;10.098;2023-08-31T10:15:50;3.58;;;1.40;;
48215;SDS011;34005;48.844;10.098;2023-08-31T10:18:19;4.65;;;1.70;;
48215;SDS011;34005;48.844;10.098;2023-08-31T10:20:47;4.05;;;1.90;;
48215;SDS011;34005;48.844;10.098;2023-08-31T10:23:15;3.63;;;1.58;;
48215;SDS011;34005;48.844;10.098;2023-08-31T10:26:04;3.30;;;1.73;;
48215;SDS011;34005;48.844;10.098;2023-08-31T10:28:38;3.88;;;1.98;;
48215;SDS011;34005;48.844;10.098;2023-08-31T10:31:09;2.28;;;1.40;;
48215;SDS011;34005;48.844;10.098;2023-08-31T10:33:39;2.45;;;1.33;;
48215;SDS011;34005;48.844;10.098;2023-08-31T10:36:09;3.83;;;1.70;;
48215;SDS011;34005;48.844;10.098;2023-08-31T10:38:37;3.67;;;1.30;;
48215;SDS011;34005;48.844;10.098;2023-08-31T10:41:21;3.97;;;1.83;;
48215;SDS011;34005;48.844;10.098;2023-08-31T10:43:51;4.20;;;1.88;;
48215;SDS011;34005;48.844;10.098;2023-08-31T10:46:28;6.40;;;2.10;;
48215;SDS011;34005;48.844;10.098;2023-08-31T10:48:57;3.95;;;1.50;;
48215;SDS011;34005;48.844;10.098;2023-08-31T10:51:27;4.25;;;1.85;;
48215;SDS011;34005;48.844;10.098;2023-08-31T10:54:05;5.07;;;1.70;;
48215;SDS011;34005;48.844;10.098;2023-08-31T10:56:44;2.72;;;1.35;;
48215;SDS011;34005;48.844;10.098;2023-08-31T10:59:20;2.50;;;1.65;;
48215;SDS011;34005;48.844;10.098;2023-08-31T11:01:56;5.05;;;2.03;;
48215;SDS011;34005;48.844;10.098;2023-08-31T11:04:52;4.22;;;1.38;;
48215;SDS011;34005;48.844;10.098;2023-08-31T11:07:34;3.17;;;1.52;;
48215;SDS011;34005;48.844;10.098;2023-08-31T11:10:07;6.22;;;1.80;;
48215;SDS011;34005;48.844;10.098;2023-08-31T11:12:36;2.83;;;1.63;;
48215;SDS011;34005;48.844;10.098;2023-08-31T11:15:04;8.38;;;2.47;;
48215;SDS011;34005;48.844;10.098;2023-08-31T11:17:33;6.57;;;2.53;;
48215;SDS011;34005;48.844;10.098;2023-08-31T11:20:02;5.53;;;2.67;;
48215;SDS011;34005;48.844;10.098;2023-08-31T11:22:32;2.83;;;1.70;;
48215;SDS011;34005;48.844;10.098;2023-08-31T11:25:00;2.85;;;1.63;;
48215;SDS011;34005;48.844;10.098;2023-08-31T11:27:29;3.47;;;1.60;;
48215;SDS011;34005;48.844;10.098;2023-08-31T11:29:57;2.78;;;1.70;;
48215;SDS011;34005;48.844;10.098;2023-08-31T11:32:27;3.60;;;1.52;;
48215;SDS011;34005;48.844;10.098;2023-08-31T11:34:54;3.83;;;1.08;;
48215;SDS011;34005;48.844;10.098;2023-08-31T11:37:23;2.40;;;1.25;;
48215;SDS011;34005;48.844;10.098;2023-08-31T11:39:53;2.08;;;1.30;;
48215;SDS011;34005;48.844;10.098;2023-08-31T11:42:21;4.20;;;1.52;;
48215;SDS011;34005;48.844;10.098;2023-08-31T11:44:49;2.75;;;1.40;;
48215;SDS011;34005;48.844;10.098;2023-08-31T11:47:20;2.22;;;1.58;;
48215;SDS011;34005;48.844;10.098;2023-08-31T11:49:48;3.20;;;1.48;;
48215;SDS011;34005;48.844;10.098;2023-08-31T11:52:16;5.13;;;1.70;;
48215;SDS011;34005;48.844;10.098;2023-08-31T11:54:45;2.53;;;1.23;;
48215;SDS011;34005;48.844;10.098;2023-08-31T11:57:18;3.33;;;1.42;;
48215;SDS011;34005;48.844;10.098;2023-08-31T11:59:46;2.97;;;1.40;;
48215;SDS011;34005;48.844;10.098;2023-08-31T12:02:18;3.00;;;1.33;;
48215;SDS011;34005;48.844;10.098;2023-08-31T12:04:47;3.22;;;1.60;;
48215;SDS011;34005;48.844;10.098;2023-08-31T12:07:16;2.90;;;1.40;;
48215;SDS011;34005;48.844;10.098;2023-08-31T12:09:45;5.78;;;1.85;;
48215;SDS011;34005;48.844;10.098;2023-08-31T12:12:13;2.47;;;1.45;;
48215;SDS011;34005;48.844;10.098;2023-08-31T12:14:42;4.38;;;1.60;;
48215;SDS011;34005;48.844;10.098;2023-08-31T12:17:10;3.70;;;1.20;;
48215;SDS011;34005;48.844;10.098;2023-08-31T12:19:40;2.72;;;1.42;;
48215;SDS011;34005;48.844;10.098;2023-08-31T12:22:07;2.53;;;1.35;;
48215;SDS011;34005;48.844;10.098;2023-08-31T12:24:39;3.58;;;1.83;;
48215;SDS011;34005;48.844;10.098;2023-08-31T12:27:09;2.53;;;1.35;;
48215;SDS011;34005;48.844;10.098;2023-08-31T12:29:37;4.05;;;1.65;;
48215;SDS011;34005;48.844;10.098;2023-08-31T12:32:05;2.22;;;1.42;;
48215;SDS011;34005;48.844;10.098;2023-08-31T12:34:32;6.78;;;1.90;;
48215;SDS011;34005;48.844;10.098;2023-08-31T12:37:00;4.07;;;1.50;;
48215;SDS011;34005;48.844;10.098;2023-08-31T12:39:29;4.65;;;1.50;;
48215;SDS011;34005;48.844;10.098;2023-08-31T12:41:58;3.50;;;1.65;;
48215;SDS011;34005;48.844;10.098;2023-08-31T12:44:47;3.55;;;1.67;;
48215;SDS011;34005;48.844;10.098;2023-08-31T12:47:14;4.63;;;1.70;;
48215;SDS011;34005;48.844;10.098;2023-08-31T12:49:42;2.38;;;1.40;;
48215;SDS011;34005;48.844;10.098;2023-08-31T12:52:10;3.60;;;1.42;;
48215;SDS011;34005;48.844;10.098;2023-08-31T12:54:37;2.78;;;1.67;;
48215;SDS011;34005;48.844;10.098;2023-08-31T12:57:05;3.88;;;1.73;;
48215;SDS011;34005;48.844;10.098;2023-08-31T12:59:33;5.93;;;1.88;;
48215;SDS011;34005;48.844;10.098;2023-08-31T13:02:02;3.25;;;1.60;;
48215;SDS011;34005;48.844;10.098;2023-08-31T13:04:33;1.45;;;1.25;;
48215;SDS011;34005;48.844;10.098;2023-08-31T13:07:02;4.13;;;1.58;;
48215;SDS011;34005;48.844;10.098;2023-08-31T13:09:31;4.82;;;1.75;;
48215;SDS011;34005;48.844;10.098;2023-08-31T13:11:59;3.05;;;1.80;;
48215;SDS011;34005;48.844;10.098;2023-08-31T13:14:26;3.35;;;1.52;;
48215;SDS011;34005;48.844;10.098;2023-08-31T13:16:54;4.32;;;1.55;;
48215;SDS011;34005;48.844;10.098;2023-08-31T13:19:23;2.80;;;1.40;;
48215;SDS011;34005;48.844;10.098;2023-08-31T13:21:54;3.67;;;1.33;;
48215;SDS011;34005;48.844;10.098;2023-08-31T13:24:22;3.78;;;1.35;;
48215;SDS011;34005;48.844;10.098;2023-08-31T13:26:49;3.22;;;1.92;;
48215;SDS011;34005;48.844;10.098;2023-08-31T13:29:17;3.80;;;1.88;;
48215;SDS011;34005;48.844;10.098;2023-08-31T13:31:45;4.22;;;1.90;;
48215;SDS011;34005;48.844;10.098;2023-08-31T13:34:12;3.25;;;1.70;;
48215;SDS011;34005;48.844;10.098;2023-08-31T13:36:43;4.15;;;1.73;;
48215;SDS011;34005;48.844;10.098;2023-08-31T13:39:12;1.95;;;1.50;;
48215;SDS011;34005;48.844;10.098;2023-08-31T13:41:40;5.82;;;1.73;;
48215;SDS011;34005;48.844;10.098;2023-08-31T13:44:07;2.92;;;1.55;;
48215;SDS011;34005;48.844;10.098;2023-08-31T13:46:35;3.75;;;2.17;;
48215;SDS011;34005;48.844;10.098;2023-08-31T13:49:02;5.88;;;1.50;;
48215;SDS011;34005;48.844;10.098;2023-08-31T13:51:30;3.63;;;1.60;;
48215;SDS011;34005;48.844;10.098;2023-08-31T13:54:01;3.58;;;1.48;;
48215;SDS011;34005;48.844;10.098;2023-08-31T13:56:31;3.88;;;1.92;;
48215;SDS011;34005;48.844;10.098;2023-08-31T13:58:59;4.50;;;1.55;;
48215;SDS011;34005;48.844;10.098;2023-08-31T14:01:27;3.72;;;1.48;;
48215;SDS011;34005;48.844;10.098;2023-08-31T14:03:54;5.68;;;1.77;;
48215;SDS011;34005;48.844;10.098;2023-08-31T14:06:22;4.97;;;1.65;;
48215;SDS011;34005;48.844;10.098;2023-08-31T14:08:50;3.55;;;1.48;;
48215;SDS011;34005;48.844;10.098;2023-08-31T14:11:19;4.53;;;2.40;;
48215;SDS011;34005;48.844;10.098;2023-08-31T14:13:47;4.30;;;1.75;;
48215;SDS011;34005;48.844;10.098;2023-08-31T14:16:15;3.88;;;1.50;;
48215;SDS011;34005;48.844;10.098;2023-08-31T14:18:43;3.22;;;1.65;;
48215;SDS011;34005;48.844;10.098;2023-08-31T14:21:14;5.88;;;2.15;;
48215;SDS011;34005;48.844;10.098;2023-08-31T14:23:42;4.20;;;1.65;;
48215;SDS011;34005;48.844;10.098;2023-08-31T14:26:11;3.50;;;1.58;;
48215;SDS011;34005;48.844;10.098;2023-08-31T14:28:40;5.13;;;1.50;;
48215;SDS011;34005;48.844;10.098;2023-08-31T14:31:08;3.47;;;1.83;;
48215;SDS011;34005;48.844;10.098;2023-08-31T14:33:36;3.78;;;1.30;;
48215;SDS011;34005;48.844;10.098;2023-08-31T14:36:04;3.88;;;2.25;;
48215;SDS011;34005;48.844;10.098;2023-08-31T14:38:31;5.18;;;1.70;;
48215;SDS011;34005;48.844;10.098;2023-08-31T14:40:59;3.85;;;1.83;;
48215;SDS011;34005;48.844;10.098;2023-08-31T14:43:27;3.92;;;1.60;;
48215;SDS011;34005;48.844;10.098;2023-08-31T14:45:56;5.75;;;1.88;;